Impacts TAF Board
For situational awareness. Not to be used for flight planning purposes.
IDs:

KMSY - New Orleans/Armstron, LA, US

Issued at 2137 UTC 30 Jun 2022
Updated at 2314 UTC 30 Jun 2022
Potential Impact None Slight Moderate High
Time2253Z 01/00Z 01/01Z 01/02Z 01/03Z 01/04Z 01/05Z 01/06Z 01/07Z 01/08Z 01/09Z 01/10Z 01/11Z 01/12Z>>
Type OBS PRVL PRVL PRVL PRVL PRVL PRVL PRVL PRVL PRVL PRVL PRVL PRVL PRVL
VIS 10 >6 >6 >6 >6 >6 >6 >6 >6 >6 >6 >6 >6 >6
CIG 150 40 40 110 110 110 110 110 110 110 110 110 110 110
Cover BKN BKN BKN BKN BKN BKN BKN BKN BKN BKN BKN BKN BKN BKN
FltCat VFR VFR VFR VFR VFR VFR VFR VFR VFR VFR VFR VFR VFR VFR
WX -- -- -- -- -- -- -- -- -- -- -- -- -- --
WDir 130 180 180 VRB VRB VRB VRB VRB VRB VRB VRB VRB VRB VRB
WSpd 8 5 5 3 3 3 3 3 3 3 3 3 3 3
WGst -- -- -- -- -- -- -- -- -- -- -- -- -- --
WSHgt -- -- -- -- -- -- -- -- -- -- -- -- -- --
WSDir -- -- -- -- -- -- -- -- -- -- -- -- -- --
WSSpd -- -- -- -- -- -- -- -- -- -- -- -- -- --
Raw TAF
KMSY 302137Z 3022/0124 18005KT P6SM SCT020 SCT030 BKN040
  FM010200 VRB03KT P6SM SCT020 BKN110
  FM011600 VRB04KT P6SM VCSH SCT030 SCT090
  FM011800 19007KT P6SM VCTS SCT030CB BKN080


Raw METAR
KMSY 302253Z 13008KT 10SM FEW020 BKN150 BKN250 28/24 A3004 RMK AO2 LTG DSNT N SLP176 T02830239
KMSY 302153Z 15007KT 10SM FEW020 SCT035 BKN150 BKN250 28/24 A3005 RMK AO2 SLP179 CB DSNT N T02780239
KMSY 302053Z 18005KT 10SM SCT020 SCT030 BKN040 26/24 A3003 RMK AO2 LTG DSNT SE RAE04B15E53 SLP173 P0000 60018 T02610244 58015

METAR Board
Radar Display
Forecast Discussion
For situational awareness. Not to be used for flight planning purposes.